Time;durP1;ratioP1;P1;durP2;ratioP2;P2;SDS_P1;SDS_P2;PMS_P1;PMS_P2;Temp;Humidity;BMP_temperature;BMP_pressure;BME280_temperature;BME280_humidity;BME280_pressure;Samples;Min_cycle;Max_cycle;Signal;HPM_P1;HPM_P2
2022/11/30 06:03:43;;;;;;;11.65;8.60;;;;;;;5.15;100.00;102323.06;5007867;28;20053;-75
2022/11/30 06:06:09;;;;;;;12.23;8.75;;;;;;;5.17;100.00;102320.81;5011748;28;20592;-75
2022/11/30 06:08:34;;;;;;;10.88;8.00;;;;;;;5.17;100.00;102329.13;5018563;28;20056;-76
2022/11/30 06:11:00;;;;;;;15.02;8.80;;;;;;;5.16;100.00;102327.47;5020367;28;20382;-77
2022/11/30 06:13:25;;;;;;;11.43;7.65;;;;;;;5.05;100.00;102329.59;5052510;23;20404;-76
2022/11/30 06:15:51;;;;;;;13.73;8.50;;;;;;;5.11;100.00;102327.56;5014580;28;20035;-76
2022/11/30 06:18:16;;;;;;;10.05;7.60;;;;;;;5.12;100.00;102332.78;5014069;28;20361;-77
2022/11/30 06:20:41;;;;;;;13.10;8.32;;;;;;;5.07;100.00;102328.16;5009963;28;20024;-77
2022/11/30 06:23:07;;;;;;;12.82;9.32;;;;;;;5.12;100.00;102340.31;5015157;28;20013;-77
2022/11/30 06:25:32;;;;;;;13.90;8.80;;;;;;;5.18;100.00;102330.75;5028352;28;20559;-77
2022/11/30 06:27:57;;;;;;;12.45;9.40;;;;;;;5.14;100.00;102326.94;5013468;28;20361;-76
2022/11/30 06:30:23;;;;;;;14.90;8.63;;;;;;;5.23;100.00;102331.50;5011526;28;20032;-77
2022/11/30 06:32:50;;;;;;;16.13;9.95;;;;;;;5.18;100.00;102345.44;5019913;28;20124;-76
2022/11/30 06:35:16;;;;;;;15.55;9.60;;;;;;;5.27;100.00;102338.09;5012663;28;20121;-77
2022/11/30 06:37:42;;;;;;;25.75;12.52;;;;;;;5.30;100.00;102342.19;5013134;28;20065;-76
2022/11/30 06:40:09;;;;;;;18.00;10.05;;;;;;;5.38;100.00;102338.72;5014258;28;20562;-75
2022/11/30 06:42:36;;;;;;;19.30;12.05;;;;;;;5.31;100.00;102341.06;5015696;28;20527;-77
2022/11/30 06:45:01;;;;;;;20.55;12.38;;;;;;;5.31;100.00;102338.28;5017086;28;20473;-77
2022/11/30 06:47:27;;;;;;;21.55;11.52;;;;;;;5.41;100.00;102340.03;5015019;28;20076;-76
2022/11/30 06:49:53;;;;;;;21.52;12.80;;;;;;;5.48;100.00;102349.63;5009489;28;20693;-76
2022/11/30 06:52:18;;;;;;;23.65;11.85;;;;;;;5.47;100.00;102353.53;5028809;28;20044;-76
2022/11/30 06:54:44;;;;;;;24.38;11.80;;;;;;;5.48;100.00;102357.13;5012499;28;20037;-76
2022/11/30 06:57:09;;;;;;;22.55;12.30;;;;;;;5.46;100.00;102353.81;5022540;28;20029;-76
2022/11/30 06:59:41;;;;;;;25.90;14.45;;;;;;;5.29;100.00;102363.59;5019448;28;20064;-76
2022/11/30 07:02:15;;;;;;;25.92;13.43;;;;;;;5.46;100.00;102368.56;5013575;28;20037;-76
2022/11/30 07:04:40;;;;;;;23.58;13.30;;;;;;;5.51;100.00;102367.63;5019109;28;20029;-75
2022/11/30 07:07:07;;;;;;;25.27;13.63;;;;;;;5.52;100.00;102382.34;5012489;28;20057;-76
2022/11/30 07:09:35;;;;;;;25.98;14.82;;;;;;;5.51;100.00;102370.41;5010259;28;20037;-76
2022/11/30 07:12:01;;;;;;;30.55;15.10;;;;;;;6.12;100.00;102382.28;5024592;28;20381;-78
2022/11/30 07:14:27;;;;;;;29.95;16.35;;;;;;;5.80;100.00;102386.78;5027182;28;20041;-77
2022/11/30 07:16:52;;;;;;;23.83;13.98;;;;;;;5.70;100.00;102398.91;5014920;28;20106;-77
2022/11/30 07:19:18;;;;;;;25.85;14.80;;;;;;;5.66;100.00;102394.28;5020910;28;20534;-76
2022/11/30 07:21:43;;;;;;;24.58;14.90;;;;;;;5.62;100.00;102390.47;5022193;28;20052;-78
2022/11/30 07:27:01;;;;;;;27.23;15.05;;;;;;;5.60;100.00;102395.50;5024401;28;21117;-76
2022/11/30 07:29:27;;;;;;;29.75;15.48;;;;;;;5.61;100.00;102397.19;5021659;28;20033;-77
2022/11/30 07:31:53;;;;;;;26.77;14.40;;;;;;;5.62;100.00;102398.81;5016494;28;20645;-77
2022/11/30 07:34:20;;;;;;;27.73;15.05;;;;;;;5.63;100.00;102406.00;5017492;28;20065;-77
2022/11/30 07:36:45;;;;;;;31.15;15.40;;;;;;;5.64;100.00;102413.22;5014168;28;20402;-76
2022/11/30 07:39:11;;;;;;;29.50;15.70;;;;;;;5.67;100.00;102412.59;5016658;28;20052;-77
2022/11/30 07:41:37;;;;;;;27.33;16.05;;;;;;;5.58;100.00;102414.44;5024189;28;20114;-77
2022/11/30 07:44:04;;;;;;;26.80;15.45;;;;;;;5.66;100.00;102422.06;5020500;28;20397;-77
2022/11/30 07:46:32;;;;;;;32.88;15.45;;;;;;;5.69;100.00;102421.44;5023224;28;20021;-76
2022/11/30 07:48:58;;;;;;;29.33;15.88;;;;;;;5.70;100.00;102423.91;5032127;28;20022;-77
2022/11/30 07:51:23;;;;;;;25.85;14.85;;;;;;;5.71;100.00;102421.97;5022671;28;20477;-77
2022/11/30 07:53:49;;;;;;;30.83;16.67;;;;;;;5.62;100.00;102427.41;5022196;28;20567;-77
2022/11/30 07:56:17;;;;;;;29.08;16.13;;;;;;;5.72;100.00;102423.63;5019946;28;20124;-79
2022/11/30 07:58:43;;;;;;;29.55;16.90;;;;;;;5.74;100.00;102434.44;5020220;28;20034;-78
2022/11/30 08:01:12;;;;;;;30.58;16.02;;;;;;;5.75;100.00;102436.88;5021350;28;20029;-79
2022/11/30 08:03:38;;;;;;;28.30;15.85;;;;;;;5.78;100.00;102441.84;5016394;28;20052;-78
2022/11/30 08:06:06;;;;;;;31.17;17.00;;;;;;;5.80;100.00;102445.16;5020336;28;20029;-77
2022/11/30 08:08:34;;;;;;;31.70;17.33;;;;;;;5.79;100.00;102443.47;5021115;28;20036;-78
2022/11/30 08:11:00;;;;;;;28.27;15.13;;;;;;;5.81;100.00;102451.53;5020480;28;20034;-78
2022/11/30 08:13:26;;;;;;;31.02;19.55;;;;;;;5.81;100.00;102441.22;5022627;28;20050;-78
2022/11/30 08:15:52;;;;;;;29.40;14.27;;;;;;;5.80;100.00;102442.38;5016699;28;20037;-77
2022/11/30 08:18:18;;;;;;;36.00;16.20;;;;;;;5.82;100.00;102442.03;5017394;28;20040;-77
2022/11/30 08:20:44;;;;;;;32.25;16.60;;;;;;;5.84;100.00;102443.41;5019387;28;20025;-78
2022/11/30 08:23:10;;;;;;;30.48;17.63;;;;;;;5.86;100.00;102445.84;5020487;28;20493;-76
2022/11/30 08:25:35;;;;;;;29.52;16.42;;;;;;;5.85;100.00;102441.44;5035812;28;20034;-77
2022/11/30 08:28:00;;;;;;;31.05;15.85;;;;;;;5.81;100.00;102446.78;5015769;28;20033;-77
2022/11/30 08:30:26;;;;;;;31.17;16.73;;;;;;;5.90;100.00;102444.94;5011178;28;20048;-78
2022/11/30 08:32:51;;;;;;;34.40;16.90;;;;;;;5.95;100.00;102451.56;5017388;28;20518;-77
2022/11/30 08:35:17;;;;;;;35.00;17.15;;;;;;;5.94;100.00;102452.66;5020222;28;20095;-78
2022/11/30 08:37:42;;;;;;;33.90;18.23;;;;;;;5.97;100.00;102454.88;5018684;28;20486;-78
2022/11/30 08:40:08;;;;;;;33.17;17.30;;;;;;;5.99;100.00;102469.28;5018633;28;20116;-77
2022/11/30 08:42:33;;;;;;;35.53;17.52;;;;;;;6.00;100.00;102459.81;5015497;28;20036;-77
2022/11/30 08:44:58;;;;;;;30.80;15.90;;;;;;;6.00;100.00;102460.63;5019210;28;20033;-78
2022/11/30 08:47:24;;;;;;;36.92;17.17;;;;;;;6.01;100.00;102456.72;5018254;28;20029;-78
2022/11/30 08:49:49;;;;;;;38.30;17.67;;;;;;;5.99;100.00;102453.44;5021962;28;20033;-79
2022/11/30 08:52:14;;;;;;;34.28;17.00;;;;;;;6.02;100.00;102457.53;5019316;28;20518;-78
2022/11/30 08:54:44;;;;;;;36.10;17.13;;;;;;;5.97;100.00;102463.22;5019058;28;20037;-78
2022/11/30 08:57:10;;;;;;;35.00;18.30;;;;;;;5.95;100.00;102457.94;5020626;28;20476;-78
2022/11/30 08:59:36;;;;;;;33.47;17.83;;;;;;;5.97;100.00;102460.44;5016874;28;20059;-78
2022/11/30 09:02:02;;;;;;;35.35;18.25;;;;;;;6.03;100.00;102464.72;5018235;28;20489;-78
2022/11/30 09:04:27;;;;;;;41.45;21.83;;;;;;;6.05;100.00;102463.31;5021580;28;20037;-78
2022/11/30 09:06:57;;;;;;;31.98;18.50;;;;;;;6.06;100.00;102464.13;5021178;28;20041;-78
2022/11/30 09:09:22;;;;;;;41.80;21.88;;;;;;;6.01;100.00;102461.44;5019622;28;20125;-78
2022/11/30 09:11:48;;;;;;;46.08;24.45;;;;;;;6.05;100.00;102470.81;5022284;28;20760;-78
2022/11/30 09:14:13;;;;;;;48.20;24.25;;;;;;;5.96;100.00;102470.69;5022351;28;20053;-78
2022/11/30 09:16:39;;;;;;;40.88;20.67;;;;;;;6.02;100.00;102468.66;5018634;28;20049;-78
2022/11/30 09:19:04;;;;;;;38.30;19.95;;;;;;;6.01;100.00;102473.41;5020382;28;20570;-78
2022/11/30 09:21:30;;;;;;;45.10;22.67;;;;;;;6.07;100.00;102471.31;5023593;28;20068;-78
2022/11/30 09:23:55;;;;;;;43.60;21.60;;;;;;;6.17;100.00;102473.09;5017896;28;20029;-77
2022/11/30 09:26:23;;;;;;;48.30;23.15;;;;;;;5.96;100.00;102469.88;5016747;28;20021;-77
2022/11/30 09:28:50;;;;;;;40.95;21.30;;;;;;;6.12;100.00;102478.75;5020255;28;20029;-76
2022/11/30 09:31:21;;;;;;;45.22;21.08;;;;;;;6.14;100.00;102474.53;5011866;28;20382;-77
2022/11/30 09:33:47;;;;;;;45.50;22.60;;;;;;;6.23;100.00;102480.19;5020936;28;20040;-78
2022/11/30 09:36:17;;;;;;;55.30;25.67;;;;;;;6.17;100.00;102484.22;5028845;28;20037;-78
2022/11/30 09:38:44;;;;;;;53.15;27.65;;;;;;;6.11;100.00;102472.34;5019561;28;20029;-78
2022/11/30 09:41:32;;;;;;;45.40;22.45;;;;;;;6.07;100.00;102476.88;5016831;28;20041;-77
2022/11/30 09:44:12;;;;;;;45.25;21.20;;;;;;;6.21;100.00;102476.91;5020586;28;20033;-78
2022/11/30 09:46:46;;;;;;;47.58;23.38;;;;;;;6.21;100.00;102483.28;5035800;28;20037;-78
2022/11/30 09:49:23;;;;;;;49.15;22.95;;;;;;;6.21;100.00;102482.47;5016957;28;20073;-78
2022/11/30 09:51:51;;;;;;;41.75;21.75;;;;;;;6.09;100.00;102480.19;5023833;28;20492;-77
2022/11/30 09:54:36;;;;;;;34.75;19.60;;;;;;;6.27;100.00;102484.00;5019302;28;20064;-77
2022/11/30 09:57:28;;;;;;;42.30;21.05;;;;;;;6.34;100.00;102481.63;5018388;28;20045;-76
2022/11/30 10:00:05;;;;;;;48.30;25.17;;;;;;;6.25;100.00;102495.44;5014300;28;20054;-77
2022/11/30 10:02:39;;;;;;;53.35;23.88;;;;;;;6.07;100.00;102499.97;5027191;28;20160;-77
2022/11/30 10:05:13;;;;;;;53.83;24.48;;;;;;;6.20;100.00;102497.47;5018724;28;20061;-77
2022/11/30 10:07:51;;;;;;;54.50;27.92;;;;;;;6.12;100.00;102495.44;5014654;28;20429;-77
2022/11/30 10:10:49;;;;;;;50.00;25.08;;;;;;;6.19;100.00;102485.53;5020793;28;20059;-77
2022/11/30 10:13:51;;;;;;;56.92;24.70;;;;;;;6.30;100.00;102492.56;4972910;28;20321;-77
2022/11/30 10:16:49;;;;;;;55.65;24.95;;;;;;;6.63;100.00;102486.03;5021154;28;20025;-77
2022/11/30 10:19:49;;;;;;;52.60;24.13;;;;;;;6.55;100.00;102482.03;5021496;28;20480;-77
2022/11/30 10:22:34;;;;;;;53.78;26.02;;;;;;;6.48;100.00;102487.19;5026670;28;20037;-77
2022/11/30 10:25:22;;;;;;;52.28;23.67;;;;;;;6.55;100.00;102482.03;5023200;28;20487;-77
2022/11/30 10:27:52;;;;;;;49.55;22.80;;;;;;;6.52;100.00;102477.09;5015024;28;20040;-77
2022/11/30 10:30:28;;;;;;;52.67;23.65;;;;;;;6.65;100.00;102487.38;5022929;28;20032;-77
2022/11/30 10:32:57;;;;;;;66.20;27.10;;;;;;;6.59;100.00;102477.47;5023700;28;20497;-77
2022/11/30 10:35:37;;;;;;;56.03;24.63;;;;;;;6.50;100.00;102473.78;5026641;28;20026;-77
2022/11/30 10:38:13;;;;;;;54.55;26.17;;;;;;;6.60;100.00;102484.72;5024868;28;20037;-77
2022/11/30 10:40:49;;;;;;;50.05;22.80;;;;;;;6.68;100.00;102474.78;5023533;28;20076;-77
2022/11/30 10:43:32;;;;;;;54.33;26.70;;;;;;;6.78;100.00;102479.31;5025252;28;20404;-77
2022/11/30 10:45:58;;;;;;;48.20;22.27;;;;;;;6.83;100.00;102487.53;5021504;28;20030;-77
2022/11/30 10:48:47;;;;;;;48.50;23.20;;;;;;;6.73;100.00;102483.03;5028772;28;20075;-77
2022/11/30 10:51:13;;;;;;;50.47;25.23;;;;;;;6.63;100.00;102472.13;5022804;28;20026;-77
2022/11/30 10:53:38;;;;;;;56.13;26.75;;;;;;;6.70;100.00;102476.13;5019000;28;20041;-76
2022/11/30 10:56:08;;;;;;;44.17;22.30;;;;;;;6.68;100.00;102481.19;5029234;28;20026;-77
2022/11/30 10:59:01;;;;;;;52.15;23.70;;;;;;;6.82;100.00;102477.53;5026294;28;20029;-76
2022/11/30 11:01:31;;;;;;;47.80;23.35;;;;;;;6.72;100.00;102471.09;5025184;28;20108;-77
2022/11/30 11:04:14;;;;;;;52.67;22.65;;;;;;;6.74;100.00;102478.28;5029487;28;20029;-77
2022/11/30 11:06:46;;;;;;;52.17;22.60;;;;;;;6.76;100.00;102476.00;5024854;28;20025;-77
2022/11/30 11:09:33;;;;;;;52.67;25.98;;;;;;;6.66;100.00;102477.91;5028781;28;20021;-76
2022/11/30 11:12:01;;;;;;;47.42;24.65;;;;;;;6.77;100.00;102466.50;5030926;28;20022;-77
2022/11/30 11:14:27;;;;;;;48.45;25.55;;;;;;;6.88;100.00;102479.09;5024657;28;20416;-77
2022/11/30 11:17:20;;;;;;;49.97;24.27;;;;;;;6.81;100.00;102473.09;5023314;28;20061;-77
2022/11/30 11:19:47;;;;;;;50.80;23.08;;;;;;;6.74;100.00;102470.75;5044676;28;20073;-76
2022/11/30 11:22:23;;;;;;;49.20;23.58;;;;;;;6.80;100.00;102471.47;5020822;28;20081;-77
2022/11/30 11:24:50;;;;;;;47.00;24.23;;;;;;;6.90;100.00;102471.25;5027823;28;20026;-77
2022/11/30 11:27:30;;;;;;;58.97;26.55;;;;;;;6.78;100.00;102468.19;5023975;28;20396;-77
2022/11/30 11:29:59;;;;;;;47.95;24.95;;;;;;;6.78;100.00;102469.00;5041044;28;20034;-77
2022/11/30 11:32:24;;;;;;;59.72;26.80;;;;;;;6.89;100.00;102466.78;5018614;28;20025;-77
2022/11/30 11:34:49;;;;;;;51.03;26.67;;;;;;;6.86;100.00;102459.09;5033413;28;20365;-77
2022/11/30 11:37:28;;;;;;;49.58;23.33;;;;;;;6.79;100.00;102470.66;5017502;28;20196;-77
2022/11/30 11:40:15;;;;;;;51.65;25.05;;;;;;;6.67;100.00;102471.19;5026737;28;20109;-77
2022/11/30 11:42:47;;;;;;;59.10;25.10;;;;;;;6.82;100.00;102472.78;5028486;28;20081;-77
2022/11/30 11:45:20;;;;;;;47.35;23.33;;;;;;;6.82;100.00;102475.56;5027920;28;20484;-77
2022/11/30 11:47:47;;;;;;;49.63;24.30;;;;;;;6.80;100.00;102469.50;5020504;28;20037;-77
2022/11/30 11:50:27;;;;;;;46.75;22.42;;;;;;;6.98;100.00;102478.00;5026184;28;20619;-76
2022/11/30 11:53:23;;;;;;;46.45;21.98;;;;;;;6.97;100.00;102479.97;5029588;28;20021;-77
2022/11/30 11:55:58;;;;;;;50.92;24.25;;;;;;;6.99;100.00;102472.13;5022135;28;20038;-77
2022/11/30 11:58:55;;;;;;;51.45;24.38;;;;;;;6.97;100.00;102477.19;5026100;28;20040;-77
2022/11/30 12:01:28;;;;;;;50.40;23.67;;;;;;;7.04;100.00;102472.03;5027635;28;20560;-76
2022/11/30 12:04:03;;;;;;;47.72;23.65;;;;;;;7.17;100.00;102481.47;5019091;28;20034;-77
2022/11/30 12:06:31;;;;;;;45.05;23.52;;;;;;;7.06;100.00;102482.81;5023234;28;20037;-77
2022/11/30 12:09:02;;;;;;;47.83;23.38;;;;;;;7.10;100.00;102487.47;5021392;28;20029;-77
2022/11/30 12:11:42;;;;;;;48.42;24.23;;;;;;;7.11;100.00;102483.53;5027211;28;20079;-77
2022/11/30 12:14:16;;;;;;;50.58;23.13;;;;;;;7.07;100.00;102487.28;5020182;28;20068;-77
2022/11/30 12:16:53;;;;;;;43.42;22.55;;;;;;;6.97;100.00;102479.16;5027173;28;20469;-77
2022/11/30 12:19:32;;;;;;;49.78;23.52;;;;;;;7.10;100.00;102475.50;5027558;28;20037;-77
2022/11/30 12:22:06;;;;;;;49.53;22.98;;;;;;;7.10;100.00;102481.91;5022262;28;20584;-77
2022/11/30 12:24:52;;;;;;;45.38;21.15;;;;;;;7.04;100.00;102477.59;5024591;28;20113;-77
2022/11/30 12:27:53;;;;;;;53.70;25.63;;;;;;;7.17;100.00;102480.63;5018431;28;20018;-77
2022/11/30 12:30:27;;;;;;;46.65;21.70;;;;;;;7.06;100.00;102475.31;5023336;28;20048;-77
2022/11/30 12:33:05;;;;;;;50.70;23.42;;;;;;;7.16;100.00;102478.97;5027883;28;20036;-77
2022/11/30 12:35:41;;;;;;;46.50;23.35;;;;;;;7.16;100.00;102485.38;5027211;28;20822;-77
2022/11/30 12:38:29;;;;;;;40.10;20.10;;;;;;;7.07;100.00;102482.50;5019765;28;20537;-76
2022/11/30 12:41:22;;;;;;;48.47;21.83;;;;;;;7.08;100.00;102489.75;5025140;28;20037;-77
2022/11/30 12:43:53;;;;;;;;;;;;;;;7.10;100.00;102475.50;5021771;28;20059;-74
2022/11/30 12:46:24;;;;;;;36.45;20.40;;;;;;;7.08;100.00;102481.41;5027047;28;20059;-76
2022/11/30 12:49:12;;;;;;;47.65;23.05;;;;;;;7.11;100.00;102477.97;5026974;28;20119;-76
2022/11/30 12:51:54;;;;;;;44.80;22.48;;;;;;;7.17;100.00;102477.84;5021637;28;20040;-77
2022/11/30 12:54:51;;;;;;;47.78;22.85;;;;;;;7.12;100.00;102485.16;5018147;28;20392;-77
2022/11/30 12:57:43;;;;;;;42.92;21.35;;;;;;;7.11;100.00;102493.84;5027731;28;20029;-76
2022/11/30 13:00:18;;;;;;;41.72;23.58;;;;;;;7.06;100.00;102486.47;5023293;28;20560;-77
2022/11/30 13:03:05;;;;;;;44.97;24.13;;;;;;;7.01;100.00;102489.34;5018730;28;20051;-77
2022/11/30 13:05:44;;;;;;;41.53;20.17;;;;;;;7.03;100.00;102497.38;5026000;28;20025;-76
2022/11/30 13:08:28;;;;;;;40.78;22.65;;;;;;;6.98;100.00;102492.78;5024892;28;20034;-76
2022/11/30 13:10:58;;;;;;;42.33;22.27;;;;;;;7.15;100.00;102496.81;5017919;28;20029;-76
2022/11/30 13:13:27;;;;;;;50.28;24.50;;;;;;;7.09;100.00;102502.50;5021122;28;20042;-77
2022/11/30 13:15:54;;;;;;;37.90;20.13;;;;;;;6.97;100.00;102491.09;5013408;28;20061;-77
2022/11/30 13:18:22;;;;;;;43.53;21.23;;;;;;;7.03;100.00;102492.63;5018407;28;20112;-76
2022/11/30 13:21:01;;;;;;;40.95;20.42;;;;;;;6.96;100.00;102491.41;5018811;28;20117;-76
2022/11/30 13:23:34;;;;;;;42.55;21.60;;;;;;;7.00;100.00;102492.44;5023493;28;20026;-77
2022/11/30 13:26:38;;;;;;;41.78;19.42;;;;;;;7.01;100.00;102492.13;5019692;28;20032;-76
2022/11/30 13:29:23;;;;;;;41.30;20.80;;;;;;;6.82;100.00;102483.13;5036953;28;20387;-76
2022/11/30 13:32:05;;;;;;;38.92;20.05;;;;;;;6.82;100.00;102494.25;5017171;28;20035;-76
2022/11/30 13:34:31;;;;;;;40.78;21.85;;;;;;;6.81;100.00;102500.94;5019782;28;20033;-76
2022/11/30 13:37:19;;;;;;;40.08;20.67;;;;;;;6.98;100.00;102498.34;5014000;28;20116;-75
2022/11/30 13:39:52;;;;;;;41.50;20.98;;;;;;;7.02;100.00;102491.00;5010761;28;20033;-76
2022/11/30 13:42:43;;;;;;;40.08;19.13;;;;;;;7.05;100.00;102497.91;5021990;28;20472;-75
2022/11/30 13:45:11;;;;;;;42.42;21.27;;;;;;;6.98;100.00;102495.56;5016663;28;20497;-76
2022/11/30 13:47:39;;;;;;;42.72;21.00;;;;;;;6.82;100.00;102502.59;5019270;28;20489;-75
2022/11/30 13:50:06;;;;;;;39.45;19.85;;;;;;;6.93;100.00;102509.56;5023750;28;20496;-75
2022/11/30 13:52:57;;;;;;;41.22;22.48;;;;;;;7.02;100.00;102502.13;5015106;28;20021;-76
2022/11/30 13:55:34;;;;;;;43.30;23.77;;;;;;;6.66;100.00;102502.94;5009166;28;20116;-76
2022/11/30 13:57:59;;;;;;;40.97;21.17;;;;;;;6.76;100.00;102498.28;5017798;28;21704;-76
2022/11/30 14:00:28;;;;;;;50.35;23.33;;;;;;;6.83;100.00;102509.78;5014546;28;20131;-76
2022/11/30 14:02:56;;;;;;;39.05;21.80;;;;;;;6.93;100.00;102512.34;5030131;28;20064;-76
2022/11/30 14:06:02;;;;;;;47.70;25.48;;;;;;;6.84;100.00;102505.88;5018930;28;20101;-76
2022/11/30 14:08:36;;;;;;;39.45;19.85;;;;;;;6.91;100.00;102509.06;5016805;28;20053;-76
2022/11/30 14:11:40;;;;;;;46.00;21.90;;;;;;;6.85;100.00;102501.97;5017333;28;20041;-76
2022/11/30 14:14:40;;;;;;;45.55;24.10;;;;;;;7.27;100.00;102502.66;5015335;28;20049;-76
2022/11/30 14:17:12;;;;;;;41.58;23.58;;;;;;;7.08;100.00;102506.47;5014801;28;20502;-76
2022/11/30 14:19:41;;;;;;;42.25;22.38;;;;;;;7.07;100.00;102510.38;5009398;28;21016;-76
2022/11/30 14:22:10;;;;;;;42.92;21.58;;;;;;;7.03;100.00;102512.13;5013153;28;20657;-76
2022/11/30 14:24:36;;;;;;;42.13;23.73;;;;;;;6.96;100.00;102508.97;5016572;28;20509;-76
2022/11/30 14:27:02;;;;;;;42.97;21.77;;;;;;;6.79;100.00;102511.56;5015604;28;20080;-76
2022/11/30 14:29:34;;;;;;;40.85;21.75;;;;;;;6.92;100.00;102516.28;5005382;28;20047;-76
2022/11/30 14:32:09;;;;;;;43.67;24.00;;;;;;;6.95;100.00;102524.00;5011704;28;20056;-76
2022/11/30 14:34:37;;;;;;;44.05;23.58;;;;;;;6.76;100.00;102526.91;5018967;28;20042;-76
2022/11/30 14:37:14;;;;;;;36.47;20.02;;;;;;;6.79;100.00;102519.91;5021125;28;20469;-76
2022/11/30 14:39:44;;;;;;;39.65;21.95;;;;;;;6.80;100.00;102527.13;5021986;28;20104;-76
2022/11/30 14:42:20;;;;;;;52.03;24.23;;;;;;;6.86;100.00;102534.25;5016855;28;20578;-76
2022/11/30 14:44:46;;;;;;;47.25;23.83;;;;;;;6.98;100.00;102533.69;5034146;28;20037;-75
2022/11/30 14:47:12;;;;;;;40.60;20.58;;;;;;;7.01;100.00;102536.66;5019512;28;20029;-75
2022/11/30 14:49:45;;;;;;;47.97;23.13;;;;;;;6.86;100.00;102537.03;5018870;28;20026;-75
2022/11/30 14:52:19;;;;;;;46.08;23.38;;;;;;;6.81;100.00;102535.19;5016354;28;20037;-75
2022/11/30 14:55:08;;;;;;;43.08;23.83;;;;;;;6.72;100.00;102532.31;5018822;28;20507;-75
2022/11/30 14:57:43;;;;;;;48.17;23.52;;;;;;;6.80;100.00;102539.09;5015245;28;20335;-76
2022/11/30 15:00:19;;;;;;;44.65;22.55;;;;;;;6.82;100.00;102536.81;5012055;28;20048;-75
2022/11/30 15:02:44;;;;;;;40.95;23.13;;;;;;;6.85;100.00;102536.22;5019499;28;20060;-76
2022/11/30 15:05:23;;;;;;;42.03;20.48;;;;;;;6.81;100.00;102542.69;5018611;28;20595;-76
2022/11/30 15:07:49;;;;;;;42.65;22.35;;;;;;;6.84;100.00;102536.50;5013655;28;20085;-75
2022/11/30 15:10:23;;;;;;;43.47;23.55;;;;;;;6.77;100.00;102541.66;5016571;28;20559;-76
2022/11/30 15:12:48;;;;;;;44.92;22.55;;;;;;;6.80;100.00;102549.41;5025219;28;20053;-76
2022/11/30 15:15:30;;;;;;;40.03;20.90;;;;;;;6.75;100.00;102541.19;5015740;28;20037;-76
2022/11/30 15:18:15;;;;;;;43.30;21.98;;;;;;;6.61;100.00;102544.78;5019272;28;20036;-75
2022/11/30 15:21:07;;;;;;;42.40;21.58;;;;;;;6.73;100.00;102535.91;5013427;28;20037;-76
2022/11/30 15:23:33;;;;;;;39.72;21.02;;;;;;;6.72;100.00;102537.88;5017099;28;20033;-75
2022/11/30 15:26:04;;;;;;;42.58;21.15;;;;;;;6.68;100.00;102538.78;5012562;28;20022;-76
2022/11/30 15:28:36;;;;;;;36.90;22.40;;;;;;;6.61;100.00;102542.00;5029241;28;20120;-76
2022/11/30 15:31:05;;;;;;;42.45;20.02;;;;;;;6.77;100.00;102536.94;5018248;28;20293;-75
2022/11/30 15:33:36;;;;;;;42.03;21.17;;;;;;;6.77;100.00;102541.66;5014319;28;20033;-76
2022/11/30 15:36:02;;;;;;;45.72;23.05;;;;;;;6.64;100.00;102540.53;5023763;28;20119;-75
2022/11/30 15:38:28;;;;;;;44.08;22.17;;;;;;;6.74;100.00;102545.06;5018433;28;20029;-76
2022/11/30 15:41:06;;;;;;;39.33;20.63;;;;;;;6.76;100.00;102537.25;5020999;28;20029;-76
2022/11/30 15:43:38;;;;;;;39.95;20.88;;;;;;;6.74;100.00;102540.31;5020851;28;20500;-76
2022/11/30 15:46:04;;;;;;;35.97;19.90;;;;;;;6.44;100.00;102537.06;5020671;28;20028;-76
2022/11/30 15:48:37;;;;;;;37.90;20.00;;;;;;;6.58;100.00;102539.84;5012950;28;20045;-78
2022/11/30 15:51:03;;;;;;;41.28;22.27;;;;;;;6.65;100.00;102551.38;5018042;28;20503;-76
2022/11/30 15:53:48;;;;;;;43.28;22.02;;;;;;;6.54;100.00;102547.16;5017043;28;20053;-75
2022/11/30 15:56:27;;;;;;;40.47;21.02;;;;;;;6.69;100.00;102557.16;5017217;28;20037;-75
2022/11/30 15:59:18;;;;;;;39.03;21.02;;;;;;;6.70;100.00;102562.41;5018689;28;20477;-76
2022/11/30 16:02:15;;;;;;;39.75;22.48;;;;;;;6.75;100.00;102563.44;5016206;28;20028;-76
2022/11/30 16:04:55;;;;;;;42.88;20.48;;;;;;;6.45;100.00;102569.31;5021756;28;20037;-76
2022/11/30 16:07:24;;;;;;;41.63;22.33;;;;;;;6.59;100.00;102563.72;5018575;28;20419;-75
2022/11/30 16:09:49;;;;;;;41.88;21.65;;;;;;;6.61;100.00;102557.88;5020433;28;20033;-75
2022/11/30 16:12:26;;;;;;;42.20;21.30;;;;;;;6.68;100.00;102566.59;5011527;28;20048;-76
2022/11/30 16:14:51;;;;;;;44.95;24.27;;;;;;;6.53;100.00;102556.63;5018441;28;20358;-76
2022/11/30 16:17:17;;;;;;;45.72;23.88;;;;;;;6.50;100.00;102568.38;5019132;28;21448;-76
2022/11/30 16:19:42;;;;;;;42.35;26.33;;;;;;;6.55;100.00;102573.00;5019756;28;20532;-76
2022/11/30 16:22:11;;;;;;;40.50;20.52;;;;;;;6.57;100.00;102567.97;5017342;28;20609;-75
2022/11/30 16:24:37;;;;;;;48.35;24.10;;;;;;;6.62;100.00;102568.69;5020226;28;20033;-76
2022/11/30 16:27:13;;;;;;;41.97;23.80;;;;;;;6.71;100.00;102569.59;5016999;28;20040;-75
2022/11/30 16:29:38;;;;;;;47.40;22.65;;;;;;;6.76;100.00;102573.41;5021149;28;20377;-76
2022/11/30 16:32:04;;;;;;;46.08;23.58;;;;;;;6.62;100.00;102570.63;5018768;28;20033;-76
2022/11/30 16:34:29;;;;;;;46.42;23.08;;;;;;;6.60;100.00;102578.47;5021276;28;20116;-76
2022/11/30 16:36:55;;;;;;;46.17;24.60;;;;;;;6.58;100.00;102583.50;5041355;28;20117;-76
2022/11/30 16:39:20;;;;;;;49.88;26.80;;;;;;;6.51;100.00;102575.56;5026490;28;20416;-75
2022/11/30 16:41:45;;;;;;;48.15;24.58;;;;;;;6.48;100.00;102576.22;5025913;28;20120;-75
2022/11/30 16:44:13;;;;;;;46.90;24.73;;;;;;;6.58;100.00;102584.34;5030941;28;20033;-75
2022/11/30 16:46:38;;;;;;;50.97;28.50;;;;;;;7.08;100.00;102581.63;5021525;28;20017;-75
2022/11/30 16:49:03;;;;;;;61.00;28.80;;;;;;;7.20;100.00;102585.84;5025825;28;20040;-74
2022/11/30 16:51:33;;;;;;;45.38;26.15;;;;;;;6.83;100.00;102584.94;5025902;28;20108;-74
2022/11/30 16:53:59;;;;;;;47.80;24.83;;;;;;;6.80;100.00;102591.97;5030622;28;20416;-74
2022/11/30 16:56:24;;;;;;;48.83;25.73;;;;;;;6.83;100.00;102582.16;5027354;28;20033;-74
2022/11/30 16:58:50;;;;;;;56.00;26.00;;;;;;;6.70;100.00;102583.81;5026563;28;20033;-73
2022/11/30 17:01:35;;;;;;;50.90;24.58;;;;;;;6.78;100.00;102590.63;5029033;28;20029;-74
2022/11/30 17:04:08;;;;;;;57.40;28.50;;;;;;;6.73;100.00;102591.56;5026397;28;20044;-74
2022/11/30 17:06:33;;;;;;;52.33;24.25;;;;;;;6.64;100.00;102593.41;5027341;28;20057;-74
2022/11/30 17:08:58;;;;;;;45.45;23.88;;;;;;;6.68;100.00;102606.41;5031554;28;20052;-74
2022/11/30 17:11:28;;;;;;;53.50;26.00;;;;;;;6.61;100.00;102605.97;5020975;28;20111;-74
2022/11/30 17:13:54;;;;;;;45.85;25.05;;;;;;;6.62;100.00;102609.59;5050486;28;20046;-74
2022/11/30 17:16:19;;;;;;;51.58;28.15;;;;;;;6.66;100.00;102605.91;5022754;28;20062;-74
2022/11/30 17:18:45;;;;;;;50.28;25.25;;;;;;;6.72;100.00;102615.78;5028367;28;20527;-74
2022/11/30 17:21:14;;;;;;;57.85;29.25;;;;;;;6.57;100.00;102610.50;5021448;28;20029;-74
2022/11/30 17:23:40;;;;;;;52.00;26.23;;;;;;;6.98;100.00;102615.25;5022779;28;20036;-73
2022/11/30 17:26:05;;;;;;;54.90;27.15;;;;;;;6.83;100.00;102619.19;5018790;28;20026;-73
2022/11/30 17:28:30;;;;;;;50.75;26.85;;;;;;;6.69;100.00;102616.41;5017404;28;20029;-73
2022/11/30 17:30:56;;;;;;;52.22;26.00;;;;;;;6.55;100.00;102620.31;5023263;28;20056;-73
2022/11/30 17:33:21;;;;;;;51.03;25.92;;;;;;;6.68;100.00;102625.91;5010654;28;20108;-73
2022/11/30 17:35:47;;;;;;;50.17;24.13;;;;;;;6.56;100.00;102608.88;5015571;28;20033;-73
2022/11/30 17:38:12;;;;;;;50.55;27.48;;;;;;;6.55;100.00;102615.56;5024456;28;20494;-73